Terminal Aerodrome Forecast
Issued by NWS

Home | Current Version | Previous Version | Text Only | Print | Product List | Glossary On
Versions: 1 2 3 4 5 6 7 8 9 10 11 12 13 14 15 16 17 18 19 20 21
709
FTUS42 KMHX 180937 AAA
TAFOAJ
TAF AMD
KOAJ 180937Z 1810/1906 17004KT 3SM BR SCT003
     FM181300 20005KT P6SM BKN050
     FM181800 20008KT P6SM VCTS BKN040CB
     FM190000 20006KT P6SM SCT050
      AMD LTD TO CLD VIS AND WIND=

USA.gov is the U.S. government's official web portal to all federal, state and local government web resources and services.